sensor_id;sensor_type;location;lat;lon;timestamp;P1;durP1;ratioP1;P2;durP2;ratioP2
28988;SDS011;16089;59.952;10.818;2023-01-25T00:01:08;126.65;;;17.92;;
28988;SDS011;16089;59.952;10.818;2023-01-25T00:03:37;203.32;;;17.75;;
28988;SDS011;16089;59.952;10.818;2023-01-25T00:06:03;187.57;;;22.05;;
28988;SDS011;16089;59.952;10.818;2023-01-25T00:08:30;69.03;;;17.17;;
28988;SDS011;16089;59.952;10.818;2023-01-25T00:10:57;140.10;;;19.05;;
28988;SDS011;16089;59.952;10.818;2023-01-25T00:13:23;167.50;;;17.17;;
28988;SDS011;16089;59.952;10.818;2023-01-25T00:15:50;160.30;;;19.25;;
28988;SDS011;16089;59.952;10.818;2023-01-25T00:18:17;267.15;;;18.38;;
28988;SDS011;16089;59.952;10.818;2023-01-25T00:20:48;245.65;;;23.38;;
28988;SDS011;16089;59.952;10.818;2023-01-25T00:23:14;186.23;;;16.63;;
28988;SDS011;16089;59.952;10.818;2023-01-25T00:25:41;143.50;;;15.45;;
28988;SDS011;16089;59.952;10.818;2023-01-25T00:28:08;219.23;;;22.38;;
28988;SDS011;16089;59.952;10.818;2023-01-25T00:30:34;216.52;;;19.13;;
28988;SDS011;16089;59.952;10.818;2023-01-25T00:33:01;137.27;;;18.60;;
28988;SDS011;16089;59.952;10.818;2023-01-25T00:35:31;381.27;;;21.45;;
28988;SDS011;16089;59.952;10.818;2023-01-25T00:38:02;370.70;;;31.92;;
28988;SDS011;16089;59.952;10.818;2023-01-25T00:40:32;207.32;;;20.67;;
28988;SDS011;16089;59.952;10.818;2023-01-25T00:42:59;276.48;;;22.60;;
28988;SDS011;16089;59.952;10.818;2023-01-25T00:45:25;378.52;;;29.13;;
28988;SDS011;16089;59.952;10.818;2023-01-25T00:47:53;247.70;;;22.25;;
28988;SDS011;16089;59.952;10.818;2023-01-25T00:50:19;267.48;;;18.02;;
28988;SDS011;16089;59.952;10.818;2023-01-25T00:52:45;201.82;;;14.73;;
28988;SDS011;16089;59.952;10.818;2023-01-25T00:55:13;239.57;;;19.88;;
28988;SDS011;16089;59.952;10.818;2023-01-25T00:57:40;325.23;;;20.42;;
28988;SDS011;16089;59.952;10.818;2023-01-25T01:00:07;281.95;;;28.80;;
28988;SDS011;16089;59.952;10.818;2023-01-25T01:02:33;195.93;;;15.63;;
28988;SDS011;16089;59.952;10.818;2023-01-25T01:05:00;277.20;;;17.35;;
28988;SDS011;16089;59.952;10.818;2023-01-25T01:07:26;327.15;;;25.58;;
28988;SDS011;16089;59.952;10.818;2023-01-25T01:09:52;260.30;;;23.95;;
28988;SDS011;16089;59.952;10.818;2023-01-25T01:12:20;176.55;;;14.68;;
28988;SDS011;16089;59.952;10.818;2023-01-25T01:14:47;232.57;;;20.52;;
28988;SDS011;16089;59.952;10.818;2023-01-25T01:17:13;137.45;;;14.93;;
28988;SDS011;16089;59.952;10.818;2023-01-25T01:19:39;109.90;;;14.90;;
28988;SDS011;16089;59.952;10.818;2023-01-25T01:22:06;272.20;;;18.65;;
28988;SDS011;16089;59.952;10.818;2023-01-25T01:24:32;143.18;;;15.45;;
28988;SDS011;16089;59.952;10.818;2023-01-25T01:26:59;304.08;;;23.83;;
28988;SDS011;16089;59.952;10.818;2023-01-25T01:29:26;113.15;;;16.33;;
28988;SDS011;16089;59.952;10.818;2023-01-25T01:31:53;453.30;;;32.25;;
28988;SDS011;16089;59.952;10.818;2023-01-25T01:34:20;385.73;;;30.33;;
28988;SDS011;16089;59.952;10.818;2023-01-25T01:36:46;168.85;;;13.35;;
28988;SDS011;16089;59.952;10.818;2023-01-25T01:39:13;344.98;;;26.70;;
28988;SDS011;16089;59.952;10.818;2023-01-25T01:41:40;390.80;;;22.45;;
28988;SDS011;16089;59.952;10.818;2023-01-25T01:44:08;232.48;;;22.00;;
28988;SDS011;16089;59.952;10.818;2023-01-25T01:46:40;212.95;;;17.20;;
28988;SDS011;16089;59.952;10.818;2023-01-25T01:49:09;143.15;;;13.80;;
28988;SDS011;16089;59.952;10.818;2023-01-25T01:51:39;227.65;;;17.10;;
28988;SDS011;16089;59.952;10.818;2023-01-25T01:54:08;133.93;;;16.08;;
28988;SDS011;16089;59.952;10.818;2023-01-25T01:56:36;147.95;;;12.50;;
28988;SDS011;16089;59.952;10.818;2023-01-25T01:59:04;274.90;;;23.25;;
28988;SDS011;16089;59.952;10.818;2023-01-25T02:01:31;348.73;;;25.75;;
28988;SDS011;16089;59.952;10.818;2023-01-25T02:03:59;385.33;;;29.17;;
28988;SDS011;16089;59.952;10.818;2023-01-25T02:06:27;219.10;;;20.58;;
28988;SDS011;16089;59.952;10.818;2023-01-25T02:08:55;198.65;;;13.35;;
28988;SDS011;16089;59.952;10.818;2023-01-25T02:11:21;176.27;;;15.02;;
28988;SDS011;16089;59.952;10.818;2023-01-25T02:13:48;178.35;;;15.05;;
28988;SDS011;16089;59.952;10.818;2023-01-25T02:16:15;140.13;;;15.02;;
28988;SDS011;16089;59.952;10.818;2023-01-25T02:18:42;114.60;;;13.95;;
28988;SDS011;16089;59.952;10.818;2023-01-25T02:21:09;197.23;;;20.85;;
28988;SDS011;16089;59.952;10.818;2023-01-25T02:23:37;339.08;;;19.42;;
28988;SDS011;16089;59.952;10.818;2023-01-25T02:26:08;123.07;;;10.73;;
28988;SDS011;16089;59.952;10.818;2023-01-25T02:28:36;211.98;;;13.50;;
28988;SDS011;16089;59.952;10.818;2023-01-25T02:31:03;66.70;;;12.10;;
28988;SDS011;16089;59.952;10.818;2023-01-25T02:33:30;217.88;;;17.63;;
28988;SDS011;16089;59.952;10.818;2023-01-25T02:35:57;283.05;;;22.67;;
28988;SDS011;16089;59.952;10.818;2023-01-25T02:38:25;277.52;;;22.25;;
28988;SDS011;16089;59.952;10.818;2023-01-25T02:40:52;502.35;;;29.75;;
28988;SDS011;16089;59.952;10.818;2023-01-25T02:43:22;401.90;;;18.13;;
28988;SDS011;16089;59.952;10.818;2023-01-25T02:45:51;139.38;;;13.13;;
28988;SDS011;16089;59.952;10.818;2023-01-25T02:48:19;122.90;;;11.25;;
28988;SDS011;16089;59.952;10.818;2023-01-25T02:50:46;304.20;;;18.27;;
28988;SDS011;16089;59.952;10.818;2023-01-25T02:53:12;114.68;;;14.35;;
28988;SDS011;16089;59.952;10.818;2023-01-25T02:55:38;184.65;;;13.32;;
28988;SDS011;16089;59.952;10.818;2023-01-25T02:58:05;448.77;;;22.48;;
28988;SDS011;16089;59.952;10.818;2023-01-25T03:00:33;153.90;;;20.08;;
28988;SDS011;16089;59.952;10.818;2023-01-25T03:02:59;211.68;;;19.20;;
28988;SDS011;16089;59.952;10.818;2023-01-25T03:05:25;239.40;;;21.88;;
28988;SDS011;16089;59.952;10.818;2023-01-25T03:07:52;293.63;;;15.98;;
28988;SDS011;16089;59.952;10.818;2023-01-25T03:10:18;316.08;;;22.65;;
28988;SDS011;16089;59.952;10.818;2023-01-25T03:12:44;494.67;;;27.50;;
28988;SDS011;16089;59.952;10.818;2023-01-25T03:15:11;245.98;;;20.52;;
28988;SDS011;16089;59.952;10.818;2023-01-25T03:17:38;267.45;;;17.02;;
28988;SDS011;16089;59.952;10.818;2023-01-25T03:20:05;131.75;;;11.07;;
28988;SDS011;16089;59.952;10.818;2023-01-25T03:22:32;291.27;;;17.35;;
28988;SDS011;16089;59.952;10.818;2023-01-25T03:24:58;206.30;;;15.50;;
28988;SDS011;16089;59.952;10.818;2023-01-25T03:27:24;415.52;;;28.55;;
28988;SDS011;16089;59.952;10.818;2023-01-25T03:29:51;172.63;;;15.95;;
28988;SDS011;16089;59.952;10.818;2023-01-25T03:32:17;381.75;;;25.45;;
28988;SDS011;16089;59.952;10.818;2023-01-25T03:34:45;291.40;;;17.35;;
28988;SDS011;16089;59.952;10.818;2023-01-25T03:37:11;182.32;;;16.38;;
28988;SDS011;16089;59.952;10.818;2023-01-25T03:39:38;153.18;;;13.48;;
28988;SDS011;16089;59.952;10.818;2023-01-25T03:42:04;122.47;;;14.45;;
28988;SDS011;16089;59.952;10.818;2023-01-25T03:44:30;258.65;;;23.00;;
28988;SDS011;16089;59.952;10.818;2023-01-25T03:46:57;160.68;;;16.23;;
28988;SDS011;16089;59.952;10.818;2023-01-25T03:49:23;143.63;;;11.80;;
28988;SDS011;16089;59.952;10.818;2023-01-25T03:51:51;202.27;;;19.50;;
28988;SDS011;16089;59.952;10.818;2023-01-25T03:54:17;202.15;;;19.80;;
28988;SDS011;16089;59.952;10.818;2023-01-25T03:56:43;252.80;;;20.98;;
28988;SDS011;16089;59.952;10.818;2023-01-25T03:59:10;76.32;;;13.75;;
28988;SDS011;16089;59.952;10.818;2023-01-25T04:01:37;83.82;;;13.02;;
28988;SDS011;16089;59.952;10.818;2023-01-25T04:04:03;206.15;;;20.15;;
28988;SDS011;16089;59.952;10.818;2023-01-25T04:06:29;142.45;;;16.45;;
28988;SDS011;16089;59.952;10.818;2023-01-25T04:08:57;182.05;;;15.90;;
28988;SDS011;16089;59.952;10.818;2023-01-25T04:11:23;160.95;;;14.23;;
28988;SDS011;16089;59.952;10.818;2023-01-25T04:13:50;174.85;;;11.63;;
28988;SDS011;16089;59.952;10.818;2023-01-25T04:16:16;248.90;;;16.30;;
28988;SDS011;16089;59.952;10.818;2023-01-25T04:18:43;151.52;;;16.80;;
28988;SDS011;16089;59.952;10.818;2023-01-25T04:21:09;146.18;;;15.93;;
28988;SDS011;16089;59.952;10.818;2023-01-25T04:23:35;207.52;;;19.08;;
28988;SDS011;16089;59.952;10.818;2023-01-25T04:26:04;367.55;;;25.48;;
28988;SDS011;16089;59.952;10.818;2023-01-25T04:28:31;226.95;;;17.80;;
28988;SDS011;16089;59.952;10.818;2023-01-25T04:30:58;277.33;;;19.75;;
28988;SDS011;16089;59.952;10.818;2023-01-25T04:33:24;169.93;;;17.42;;
28988;SDS011;16089;59.952;10.818;2023-01-25T04:35:51;459.35;;;31.80;;
28988;SDS011;16089;59.952;10.818;2023-01-25T04:38:17;238.07;;;19.33;;
28988;SDS011;16089;59.952;10.818;2023-01-25T04:40:43;321.25;;;22.95;;
28988;SDS011;16089;59.952;10.818;2023-01-25T04:43:12;312.50;;;16.60;;
28988;SDS011;16089;59.952;10.818;2023-01-25T04:45:39;152.13;;;14.98;;
28988;SDS011;16089;59.952;10.818;2023-01-25T04:48:07;373.40;;;24.60;;
28988;SDS011;16089;59.952;10.818;2023-01-25T04:50:34;179.52;;;14.77;;
28988;SDS011;16089;59.952;10.818;2023-01-25T04:53:01;94.70;;;13.65;;
28988;SDS011;16089;59.952;10.818;2023-01-25T04:55:27;211.82;;;15.15;;
28988;SDS011;16089;59.952;10.818;2023-01-25T04:57:53;232.95;;;19.88;;
28988;SDS011;16089;59.952;10.818;2023-01-25T05:00:21;376.75;;;24.20;;
28988;SDS011;16089;59.952;10.818;2023-01-25T05:02:48;405.33;;;26.38;;
28988;SDS011;16089;59.952;10.818;2023-01-25T05:05:14;106.95;;;12.48;;
28988;SDS011;16089;59.952;10.818;2023-01-25T05:07:40;72.88;;;11.93;;
28988;SDS011;16089;59.952;10.818;2023-01-25T05:10:07;351.65;;;17.15;;
28988;SDS011;16089;59.952;10.818;2023-01-25T05:12:34;141.30;;;15.93;;
28988;SDS011;16089;59.952;10.818;2023-01-25T05:15:00;162.90;;;11.60;;
28988;SDS011;16089;59.952;10.818;2023-01-25T05:17:28;357.73;;;24.42;;
28988;SDS011;16089;59.952;10.818;2023-01-25T05:19:55;101.13;;;14.75;;
28988;SDS011;16089;59.952;10.818;2023-01-25T05:22:21;125.57;;;14.82;;
28988;SDS011;16089;59.952;10.818;2023-01-25T05:24:48;465.70;;;31.00;;
28988;SDS011;16089;59.952;10.818;2023-01-25T05:27:15;146.52;;;15.45;;
28988;SDS011;16089;59.952;10.818;2023-01-25T05:29:41;315.63;;;20.23;;
28988;SDS011;16089;59.952;10.818;2023-01-25T05:32:09;119.90;;;15.15;;
28988;SDS011;16089;59.952;10.818;2023-01-25T05:34:37;245.77;;;20.08;;
28988;SDS011;16089;59.952;10.818;2023-01-25T05:37:04;281.58;;;23.90;;
28988;SDS011;16089;59.952;10.818;2023-01-25T05:39:31;373.70;;;23.23;;
28988;SDS011;16089;59.952;10.818;2023-01-25T05:41:57;144.00;;;21.33;;
28988;SDS011;16089;59.952;10.818;2023-01-25T05:44:23;305.55;;;21.33;;
28988;SDS011;16089;59.952;10.818;2023-01-25T05:46:50;425.30;;;29.48;;
28988;SDS011;16089;59.952;10.818;2023-01-25T05:49:16;193.55;;;20.70;;
28988;SDS011;16089;59.952;10.818;2023-01-25T05:51:44;52.35;;;13.00;;
28988;SDS011;16089;59.952;10.818;2023-01-25T05:54:11;81.60;;;12.38;;
28988;SDS011;16089;59.952;10.818;2023-01-25T05:56:38;274.90;;;16.17;;
28988;SDS011;16089;59.952;10.818;2023-01-25T05:59:04;127.80;;;14.23;;
28988;SDS011;16089;59.952;10.818;2023-01-25T06:01:31;148.30;;;17.60;;
28988;SDS011;16089;59.952;10.818;2023-01-25T06:03:57;267.20;;;24.75;;
28988;SDS011;16089;59.952;10.818;2023-01-25T06:06:23;101.43;;;13.93;;
28988;SDS011;16089;59.952;10.818;2023-01-25T06:08:51;178.00;;;23.88;;
28988;SDS011;16089;59.952;10.818;2023-01-25T06:11:18;171.48;;;22.17;;
28988;SDS011;16089;59.952;10.818;2023-01-25T06:13:45;310.35;;;19.00;;
28988;SDS011;16089;59.952;10.818;2023-01-25T06:16:11;44.38;;;13.77;;
28988;SDS011;16089;59.952;10.818;2023-01-25T06:18:38;260.17;;;25.92;;
28988;SDS011;16089;59.952;10.818;2023-01-25T06:21:04;34.00;;;11.15;;
28988;SDS011;16089;59.952;10.818;2023-01-25T06:23:30;89.10;;;15.93;;
28988;SDS011;16089;59.952;10.818;2023-01-25T06:25:59;134.32;;;14.05;;
28988;SDS011;16089;59.952;10.818;2023-01-25T06:28:25;277.00;;;18.95;;
28988;SDS011;16089;59.952;10.818;2023-01-25T06:30:51;69.78;;;17.40;;
28988;SDS011;16089;59.952;10.818;2023-01-25T06:33:18;78.65;;;18.52;;
28988;SDS011;16089;59.952;10.818;2023-01-25T06:35:44;74.65;;;12.98;;
28988;SDS011;16089;59.952;10.818;2023-01-25T06:38:11;32.20;;;13.18;;
28988;SDS011;16089;59.952;10.818;2023-01-25T06:40:37;109.80;;;15.65;;
28988;SDS011;16089;59.952;10.818;2023-01-25T06:43:08;46.35;;;11.95;;
28988;SDS011;16089;59.952;10.818;2023-01-25T06:45:34;202.32;;;17.27;;
28988;SDS011;16089;59.952;10.818;2023-01-25T06:48:01;116.93;;;12.85;;
28988;SDS011;16089;59.952;10.818;2023-01-25T06:50:27;36.78;;;14.25;;
28988;SDS011;16089;59.952;10.818;2023-01-25T06:52:54;31.23;;;12.13;;
28988;SDS011;16089;59.952;10.818;2023-01-25T06:55:20;33.03;;;13.52;;
28988;SDS011;16089;59.952;10.818;2023-01-25T06:57:47;85.03;;;15.40;;
28988;SDS011;16089;59.952;10.818;2023-01-25T07:00:16;34.15;;;13.95;;
28988;SDS011;16089;59.952;10.818;2023-01-25T07:02:42;310.88;;;22.45;;
28988;SDS011;16089;59.952;10.818;2023-01-25T07:05:09;443.77;;;26.02;;
28988;SDS011;16089;59.952;10.818;2023-01-25T07:07:35;59.58;;;14.20;;
28988;SDS011;16089;59.952;10.818;2023-01-25T07:10:01;26.45;;;11.18;;
28988;SDS011;16089;59.952;10.818;2023-01-25T07:12:28;105.57;;;16.58;;
28988;SDS011;16089;59.952;10.818;2023-01-25T07:14:54;31.85;;;12.38;;
28988;SDS011;16089;59.952;10.818;2023-01-25T07:17:22;31.17;;;11.77;;
28988;SDS011;16089;59.952;10.818;2023-01-25T07:19:49;32.28;;;13.88;;
28988;SDS011;16089;59.952;10.818;2023-01-25T07:22:15;84.85;;;13.63;;
28988;SDS011;16089;59.952;10.818;2023-01-25T07:24:42;46.65;;;12.98;;
28988;SDS011;16089;59.952;10.818;2023-01-25T07:27:13;23.55;;;12.20;;
28988;SDS011;16089;59.952;10.818;2023-01-25T07:29:40;139.30;;;16.65;;
28988;SDS011;16089;59.952;10.818;2023-01-25T07:32:06;109.55;;;16.48;;
28988;SDS011;16089;59.952;10.818;2023-01-25T07:34:34;21.38;;;12.23;;
28988;SDS011;16089;59.952;10.818;2023-01-25T07:37:02;54.88;;;15.23;;
28988;SDS011;16089;59.952;10.818;2023-01-25T07:39:28;20.00;;;10.88;;
28988;SDS011;16089;59.952;10.818;2023-01-25T07:41:55;25.05;;;11.60;;
28988;SDS011;16089;59.952;10.818;2023-01-25T07:44:21;19.02;;;10.82;;
28988;SDS011;16089;59.952;10.818;2023-01-25T07:46:47;30.63;;;12.93;;
28988;SDS011;16089;59.952;10.818;2023-01-25T07:49:14;53.67;;;10.70;;
28988;SDS011;16089;59.952;10.818;2023-01-25T07:51:42;38.25;;;11.57;;
28988;SDS011;16089;59.952;10.818;2023-01-25T07:54:09;100.85;;;13.82;;
28988;SDS011;16089;59.952;10.818;2023-01-25T07:56:35;47.75;;;14.68;;
28988;SDS011;16089;59.952;10.818;2023-01-25T07:59:03;31.92;;;13.15;;
28988;SDS011;16089;59.952;10.818;2023-01-25T08:01:32;27.20;;;12.98;;
28988;SDS011;16089;59.952;10.818;2023-01-25T08:04:00;41.75;;;14.90;;
28988;SDS011;16089;59.952;10.818;2023-01-25T08:06:28;156.27;;;16.13;;
28988;SDS011;16089;59.952;10.818;2023-01-25T08:09:00;106.18;;;16.15;;
28988;SDS011;16089;59.952;10.818;2023-01-25T08:11:27;51.10;;;14.18;;
28988;SDS011;16089;59.952;10.818;2023-01-25T08:13:53;46.08;;;16.98;;
28988;SDS011;16089;59.952;10.818;2023-01-25T08:16:21;280.83;;;22.80;;
28988;SDS011;16089;59.952;10.818;2023-01-25T08:18:48;41.63;;;17.27;;
28988;SDS011;16089;59.952;10.818;2023-01-25T08:21:15;41.55;;;14.80;;
28988;SDS011;16089;59.952;10.818;2023-01-25T08:23:41;76.05;;;16.48;;
28988;SDS011;16089;59.952;10.818;2023-01-25T08:26:09;618.53;;;34.97;;
28988;SDS011;16089;59.952;10.818;2023-01-25T08:28:36;247.00;;;19.77;;
28988;SDS011;16089;59.952;10.818;2023-01-25T08:31:05;31.10;;;15.00;;
28988;SDS011;16089;59.952;10.818;2023-01-25T08:33:32;68.57;;;19.77;;
28988;SDS011;16089;59.952;10.818;2023-01-25T08:35:59;69.53;;;16.23;;
28988;SDS011;16089;59.952;10.818;2023-01-25T08:38:25;54.45;;;19.48;;
28988;SDS011;16089;59.952;10.818;2023-01-25T08:40:51;75.35;;;19.17;;
28988;SDS011;16089;59.952;10.818;2023-01-25T08:43:19;54.25;;;17.00;;
28988;SDS011;16089;59.952;10.818;2023-01-25T08:45:45;177.90;;;16.98;;
28988;SDS011;16089;59.952;10.818;2023-01-25T08:48:12;46.53;;;17.02;;
28988;SDS011;16089;59.952;10.818;2023-01-25T08:50:44;122.65;;;21.92;;
28988;SDS011;16089;59.952;10.818;2023-01-25T08:53:10;22.63;;;13.07;;
28988;SDS011;16089;59.952;10.818;2023-01-25T08:55:36;150.43;;;23.13;;
28988;SDS011;16089;59.952;10.818;2023-01-25T08:58:04;796.60;;;40.58;;
28988;SDS011;16089;59.952;10.818;2023-01-25T09:00:37;158.82;;;19.30;;
28988;SDS011;16089;59.952;10.818;2023-01-25T09:03:03;247.18;;;18.30;;
28988;SDS011;16089;59.952;10.818;2023-01-25T09:05:29;57.90;;;16.10;;
28988;SDS011;16089;59.952;10.818;2023-01-25T09:07:57;53.97;;;19.23;;
28988;SDS011;16089;59.952;10.818;2023-01-25T09:10:23;271.85;;;23.70;;
28988;SDS011;16089;59.952;10.818;2023-01-25T09:12:50;75.35;;;18.98;;
28988;SDS011;16089;59.952;10.818;2023-01-25T09:15:16;189.43;;;19.20;;
28988;SDS011;16089;59.952;10.818;2023-01-25T09:17:44;112.53;;;21.98;;
28988;SDS011;16089;59.952;10.818;2023-01-25T09:20:10;154.70;;;23.42;;
28988;SDS011;16089;59.952;10.818;2023-01-25T09:22:37;128.70;;;24.50;;
28988;SDS011;16089;59.952;10.818;2023-01-25T09:25:04;56.72;;;16.80;;
28988;SDS011;16089;59.952;10.818;2023-01-25T09:27:31;50.53;;;15.00;;
28988;SDS011;16089;59.952;10.818;2023-01-25T09:29:57;95.28;;;20.17;;
28988;SDS011;16089;59.952;10.818;2023-01-25T09:32:24;38.20;;;16.85;;
28988;SDS011;16089;59.952;10.818;2023-01-25T09:34:51;26.52;;;14.52;;
28988;SDS011;16089;59.952;10.818;2023-01-25T09:37:18;84.78;;;18.88;;
28988;SDS011;16089;59.952;10.818;2023-01-25T09:39:44;63.63;;;16.95;;
28988;SDS011;16089;59.952;10.818;2023-01-25T09:42:15;46.78;;;18.95;;
28988;SDS011;16089;59.952;10.818;2023-01-25T09:47:32;43.28;;;18.35;;
28988;SDS011;16089;59.952;10.818;2023-01-25T09:50:08;65.90;;;17.88;;
28988;SDS011;16089;59.952;10.818;2023-01-25T09:55:27;37.65;;;15.70;;
28988;SDS011;16089;59.952;10.818;2023-01-25T09:57:54;46.88;;;12.75;;
28988;SDS011;16089;59.952;10.818;2023-01-25T10:00:25;21.58;;;11.05;;
28988;SDS011;16089;59.952;10.818;2023-01-25T10:02:53;26.80;;;13.60;;
28988;SDS011;16089;59.952;10.818;2023-01-25T10:05:23;26.55;;;12.77;;
28988;SDS011;16089;59.952;10.818;2023-01-25T10:07:53;14.23;;;7.43;;
28988;SDS011;16089;59.952;10.818;2023-01-25T10:10:23;13.07;;;7.35;;
28988;SDS011;16089;59.952;10.818;2023-01-25T10:12:52;19.30;;;10.23;;
28988;SDS011;16089;59.952;10.818;2023-01-25T10:15:19;20.98;;;9.63;;
28988;SDS011;16089;59.952;10.818;2023-01-25T10:17:47;21.92;;;9.73;;
28988;SDS011;16089;59.952;10.818;2023-01-25T10:20:25;16.60;;;7.97;;
28988;SDS011;16089;59.952;10.818;2023-01-25T10:22:55;18.48;;;8.82;;
28988;SDS011;16089;59.952;10.818;2023-01-25T10:25:24;17.55;;;9.02;;
28988;SDS011;16089;59.952;10.818;2023-01-25T10:30:36;14.73;;;6.55;;
28988;SDS011;16089;59.952;10.818;2023-01-25T10:33:08;8.88;;;4.95;;
28988;SDS011;16089;59.952;10.818;2023-01-25T10:35:37;12.20;;;6.78;;
28988;SDS011;16089;59.952;10.818;2023-01-25T10:38:10;14.50;;;5.75;;
28988;SDS011;16089;59.952;10.818;2023-01-25T10:40:39;8.65;;;3.90;;
28988;SDS011;16089;59.952;10.818;2023-01-25T10:43:06;10.73;;;5.25;;
28988;SDS011;16089;59.952;10.818;2023-01-25T10:45:34;13.00;;;4.95;;
28988;SDS011;16089;59.952;10.818;2023-01-25T10:48:00;14.50;;;5.18;;
28988;SDS011;16089;59.952;10.818;2023-01-25T10:50:43;13.10;;;5.22;;
28988;SDS011;16089;59.952;10.818;2023-01-25T10:53:21;9.63;;;5.65;;
28988;SDS011;16089;59.952;10.818;2023-01-25T10:55:58;12.55;;;4.40;;
28988;SDS011;16089;59.952;10.818;2023-01-25T10:58:28;9.23;;;3.95;;
28988;SDS011;16089;59.952;10.818;2023-01-25T11:00:55;8.63;;;4.28;;
28988;SDS011;16089;59.952;10.818;2023-01-25T11:03:22;9.55;;;4.93;;
28988;SDS011;16089;59.952;10.818;2023-01-25T11:05:53;13.07;;;5.97;;
28988;SDS011;16089;59.952;10.818;2023-01-25T11:08:21;11.75;;;5.10;;
28988;SDS011;16089;59.952;10.818;2023-01-25T11:10:47;15.52;;;6.57;;
28988;SDS011;16089;59.952;10.818;2023-01-25T11:13:17;12.18;;;6.22;;
28988;SDS011;16089;59.952;10.818;2023-01-25T11:15:45;8.65;;;4.05;;
28988;SDS011;16089;59.952;10.818;2023-01-25T11:18:13;8.95;;;3.83;;
28988;SDS011;16089;59.952;10.818;2023-01-25T11:20:41;10.68;;;6.20;;
28988;SDS011;16089;59.952;10.818;2023-01-25T11:23:18;8.98;;;4.20;;
28988;SDS011;16089;59.952;10.818;2023-01-25T11:25:46;11.02;;;4.95;;
28988;SDS011;16089;59.952;10.818;2023-01-25T11:28:16;11.68;;;4.72;;
28988;SDS011;16089;59.952;10.818;2023-01-25T11:30:43;11.45;;;5.13;;
28988;SDS011;16089;59.952;10.818;2023-01-25T11:33:10;10.43;;;5.20;;
28988;SDS011;16089;59.952;10.818;2023-01-25T11:35:39;10.02;;;4.63;;
28988;SDS011;16089;59.952;10.818;2023-01-25T11:38:09;8.77;;;4.18;;
28988;SDS011;16089;59.952;10.818;2023-01-25T11:40:40;11.65;;;4.40;;
28988;SDS011;16089;59.952;10.818;2023-01-25T11:43:15;8.95;;;4.88;;
28988;SDS011;16089;59.952;10.818;2023-01-25T11:45:54;9.38;;;4.07;;
28988;SDS011;16089;59.952;10.818;2023-01-25T11:48:29;7.30;;;3.78;;
28988;SDS011;16089;59.952;10.818;2023-01-25T11:51:01;9.85;;;3.47;;
28988;SDS011;16089;59.952;10.818;2023-01-25T11:53:34;10.07;;;3.97;;
28988;SDS011;16089;59.952;10.818;2023-01-25T11:56:05;9.10;;;3.75;;
28988;SDS011;16089;59.952;10.818;2023-01-25T11:58:46;7.38;;;3.95;;
28988;SDS011;16089;59.952;10.818;2023-01-25T12:01:19;10.43;;;3.60;;
28988;SDS011;16089;59.952;10.818;2023-01-25T12:06:42;7.32;;;3.00;;
28988;SDS011;16089;59.952;10.818;2023-01-25T12:09:17;8.27;;;2.92;;
28988;SDS011;16089;59.952;10.818;2023-01-25T12:14:35;8.20;;;3.97;;
28988;SDS011;16089;59.952;10.818;2023-01-25T12:17:15;7.53;;;3.00;;
28988;SDS011;16089;59.952;10.818;2023-01-25T12:19:53;5.85;;;2.55;;
28988;SDS011;16089;59.952;10.818;2023-01-25T12:22:28;6.75;;;3.00;;
28988;SDS011;16089;59.952;10.818;2023-01-25T12:24:58;4.43;;;2.63;;
28988;SDS011;16089;59.952;10.818;2023-01-25T12:27:31;6.53;;;2.85;;
28988;SDS011;16089;59.952;10.818;2023-01-25T12:30:02;5.47;;;2.10;;
28988;SDS011;16089;59.952;10.818;2023-01-25T12:35:03;6.18;;;2.15;;
28988;SDS011;16089;59.952;10.818;2023-01-25T12:37:38;7.03;;;2.58;;
28988;SDS011;16089;59.952;10.818;2023-01-25T12:40:08;5.22;;;2.10;;
28988;SDS011;16089;59.952;10.818;2023-01-25T12:42:39;4.95;;;2.00;;
28988;SDS011;16089;59.952;10.818;2023-01-25T12:45:10;6.80;;;2.67;;
28988;SDS011;16089;59.952;10.818;2023-01-25T12:47:39;8.73;;;2.40;;
28988;SDS011;16089;59.952;10.818;2023-01-25T12:50:11;5.90;;;2.97;;
28988;SDS011;16089;59.952;10.818;2023-01-25T12:52:40;6.13;;;2.30;;
28988;SDS011;16089;59.952;10.818;2023-01-25T12:55:11;8.70;;;2.78;;
28988;SDS011;16089;59.952;10.818;2023-01-25T12:57:38;7.72;;;3.35;;
28988;SDS011;16089;59.952;10.818;2023-01-25T13:00:07;7.50;;;3.35;;
28988;SDS011;16089;59.952;10.818;2023-01-25T13:02:56;6.57;;;2.90;;
28988;SDS011;16089;59.952;10.818;2023-01-25T13:05:28;5.15;;;2.95;;
28988;SDS011;16089;59.952;10.818;2023-01-25T13:08:01;5.47;;;1.90;;
28988;SDS011;16089;59.952;10.818;2023-01-25T13:10:28;4.72;;;1.92;;
28988;SDS011;16089;59.952;10.818;2023-01-25T13:12:57;6.00;;;2.28;;
28988;SDS011;16089;59.952;10.818;2023-01-25T13:15:37;5.45;;;2.30;;
28988;SDS011;16089;59.952;10.818;2023-01-25T13:21:07;5.30;;;2.13;;
28988;SDS011;16089;59.952;10.818;2023-01-25T13:23:36;6.68;;;2.53;;
28988;SDS011;16089;59.952;10.818;2023-01-25T13:28:53;6.30;;;2.42;;
28988;SDS011;16089;59.952;10.818;2023-01-25T13:34:01;7.50;;;3.13;;
28988;SDS011;16089;59.952;10.818;2023-01-25T13:36:43;12.63;;;6.57;;
28988;SDS011;16089;59.952;10.818;2023-01-25T13:41:56;5.68;;;2.75;;
28988;SDS011;16089;59.952;10.818;2023-01-25T13:44:23;5.60;;;2.25;;
28988;SDS011;16089;59.952;10.818;2023-01-25T13:46:52;5.20;;;2.33;;
28988;SDS011;16089;59.952;10.818;2023-01-25T13:49:20;6.40;;;2.72;;
28988;SDS011;16089;59.952;10.818;2023-01-25T13:51:49;5.70;;;2.70;;
28988;SDS011;16089;59.952;10.818;2023-01-25T13:54:15;4.68;;;1.85;;
28988;SDS011;16089;59.952;10.818;2023-01-25T13:56:42;5.28;;;2.90;;
28988;SDS011;16089;59.952;10.818;2023-01-25T13:59:22;8.07;;;2.70;;
28988;SDS011;16089;59.952;10.818;2023-01-25T14:01:48;5.00;;;2.42;;
28988;SDS011;16089;59.952;10.818;2023-01-25T14:04:15;5.40;;;2.92;;
28988;SDS011;16089;59.952;10.818;2023-01-25T14:06:43;6.97;;;3.15;;
28988;SDS011;16089;59.952;10.818;2023-01-25T14:09:12;8.05;;;2.65;;
28988;SDS011;16089;59.952;10.818;2023-01-25T14:11:42;5.13;;;2.28;;
28988;SDS011;16089;59.952;10.818;2023-01-25T14:14:16;6.15;;;2.50;;
28988;SDS011;16089;59.952;10.818;2023-01-25T14:16:43;5.38;;;2.53;;
28988;SDS011;16089;59.952;10.818;2023-01-25T14:19:22;5.88;;;3.30;;
28988;SDS011;16089;59.952;10.818;2023-01-25T14:21:49;6.70;;;3.67;;
28988;SDS011;16089;59.952;10.818;2023-01-25T14:24:17;5.03;;;2.92;;
28988;SDS011;16089;59.952;10.818;2023-01-25T14:26:44;6.30;;;3.10;;
28988;SDS011;16089;59.952;10.818;2023-01-25T14:29:15;8.10;;;3.45;;
28988;SDS011;16089;59.952;10.818;2023-01-25T14:31:42;8.18;;;2.92;;
28988;SDS011;16089;59.952;10.818;2023-01-25T14:34:13;5.35;;;2.65;;
28988;SDS011;16089;59.952;10.818;2023-01-25T14:36:40;6.45;;;2.70;;
28988;SDS011;16089;59.952;10.818;2023-01-25T14:39:12;7.50;;;3.08;;
28988;SDS011;16089;59.952;10.818;2023-01-25T14:41:40;5.55;;;3.13;;